Mangum, OK

3:25 PM CDT on April 19, 2015 (GMT -0500)
Altus Municipal | | Change Station
CLOSE
Current Station
Airport
Location: Altus,
Elevation: 1434 ft
Nearby Weather Stations
Active Advisory: Wind Advisory

Elev 1434 ft 34.70 °N, 99.34 °W | Updated 10 minutes ago

Partly Cloudy
Partly Cloudy
68 °F
Feels Like 68 °F
N
23
Wind Variable Wind from NNW
Gusts 33 mph

Today
High -- | Low -- °F
--% Chance of Precip.
Yesterday
High -- | Low -- °F
Precip. -- in
7:01 AM 8:13 PM
New Moon, 2% visible
Pressure 29.85 in
Visibility 10.0 miles
Clouds Scattered Clouds 4000 ft
Dew Point 49 °F
Humidity 49%
Rainfall 0.00 in
Snow Depth Not available.
UV 7 out of 12
Pollen 10.40 out of 12
Air Quality Not available.
Flu Activity Regional
METAR KAXS 192015Z AUTO 33020G29KT 10SM SCT040 20/09 A2985 RMK AO2 T02030094

More Conditions Fewer Conditions

Pressure 29.85 in
Visibility 10.0 miles
Clouds Scattered Clouds 4000 ft
Dew Point 49 °F
Humidity 49%
Rainfall 0.00 in
Snow Depth Not available.
UV 7 out of 12
Pollen 10.40 out of 12
Air Quality Not available.
Flu Activity Regional
METAR KAXS 192015Z AUTO 33020G29KT 10SM SCT040 20/09 A2985 RMK AO2 T02030094

More Conditions Fewer Conditions

10-Day Weather Forecast

Almanac

Astronomy

Apr. 19, 2015 Rise Set
Actual Time
Civil Twilight
Nautical Twilight
Astronomical Twilight
Moon
Length of Visible Light
Length of Day
Tomorrow will be .
, % of the Moon is Illuminated

Today's Extremes

State Highs State Lows

Community

WunderPhotos

Upload Photos

1,814,973 photos uploaded!

WunderBlogs® & News

Nearby

Air Quality

  Air Quality AQ Index Pollutant
Not available.

Snow Depth

Station Depth Elevation

Earthquake Activity

City Distance Mag. Time & Date
Minimum magnitude displayed is 2.5.

Coastal Water Temperatures

Place Temperature

Stations

Nearby Weather Stations

Station Location Temp. Windchill Dew Point Humidity Wind Precip. Elev Updated Type
                   
Wind Advisory
Statement as of 10:47 AM CDT on April 19, 2015

... Wind Advisory in effect until 5 PM CDT this afternoon...

The National Weather Service in Norman has issued a Wind
Advisory... which is in effect until 5 PM CDT this afternoon.

* Timing: noon to 5 PM today

* winds: northwest winds 25 to 35 mph... with gusts of 45 to 50 mph
possible.

* Impacts: travel on east west oriented roadways will become
difficult... especially in high profile and lightweight vehicles.
Lightweight objects that are not secured may be lofted by the
strong winds.

Precautionary/preparedness actions...

Be careful if you have to travel or if you are working or playing
outside.



Austin